Littleton, CO (80120)

10:19 PM MDT on September 22, 2014 (GMT -0600)
Arapahoe Community College | Change Station
CLOSE
Current Station
Personal Weather Station
Location: Littleton, CO
Elevation: 5371 ft
Nearby Weather Stations

Elev 5371 ft 39.61 °N, 105.02 °W | Updated 4 minutes ago

Partly Cloudy
Partly Cloudy
61.5 °F
Feels Like 61.5 °F
N
0.0
Wind Variable Wind from South
Gusts 0.0 mph

Today
High -- | Low -- °F
--% Chance of Precip.
Yesterday
High -- | Low -- °F
Precip. -- in
6:47 AM 6:57 PM
Waning Crescent, 1% visible
Pressure 30.03 in
Visibility 10.0 miles
Clouds Scattered Clouds 10000 ft
Mostly Cloudy 12000 ft
Dew Point 55 °F
Humidity 77%
Rainfall -999.00 in
Snow Depth 9 in , 0 in , 0 in
UV 0 out of 12
Pollen 6.70 out of 12
Ozone Good
PM2.5 Good
Flu Activity Not available.
METAR KAPA 230353Z 20005KT 10SM SCT100 BKN120 16/11 A3016 RMK AO2 SLP168 T01560111

More Conditions Fewer Conditions

Pressure 30.03 in
Visibility 10.0 miles
Clouds Scattered Clouds 10000 ft
Mostly Cloudy 12000 ft
Dew Point 55 °F
Humidity 77%
Rainfall -999.00 in
Snow Depth 9 in , 0 in , 0 in
UV 0 out of 12
Pollen 6.70 out of 12
Ozone Good
PM2.5 Good
Flu Activity Not available.
METAR KAPA 230353Z 20005KT 10SM SCT100 BKN120 16/11 A3016 RMK AO2 SLP168 T01560111

More Conditions Fewer Conditions

10-Day Weather Forecast

Almanac

Astronomy

Sep. 22, 2014 Rise Set
Actual Time 6:47 AM MDT 6:57 PM MDT
Civil Twilight 6:20 AM MDT 7:23 PM MDT
Nautical Twilight 5:49 AM MDT 7:55 PM MDT
Astronomical Twilight 5:17 AM MDT 8:27 PM MDT
Moon 5:18 AM MDT (9/22) 6:05 PM MDT (9/22)
Length of Visible Light 13h 03m
Length of Day
12h 09m
Tomorrow will be 2m 34s shorter.
Waning Crescent, 1% of the Moon is Illuminated
Sep 23
Waning Crescent
Sep 24
New
Oct 1
First Quarter
Oct 8
Full
Oct 15
Last Quarter

Community

WunderPhotos

Upload Photos

1,755,611 photos uploaded!

Nearby

Air Quality

  Air Quality AQ Index Pollutant
Yesterday Good
PM10
Yesterday Good
OZONE
Current Good
OZONE
Current Good
PM2.5
Monday Moderate
PM2.5
Monday Good
OZONE
Tuesday Moderate
PM2.5
Tuesday Good
OZONE

Snow Depth

Station Depth Elevation
Mccoy Park 9 in 9480 ft
Roach 0 in 9700 ft
Vallecito 0 in 10880 ft
University Camp 0 in 10300 ft
Hoosier Pass 0 in 11400 ft

Earthquake Activity

City Distance Mag. Time & Date
No recent earthquake activity has been reported nearby.
Minimum magnitude displayed is 2.5.

Coastal Water Temperatures

Place Temperature
No Stations Reporting

Nearby Weather Stations